Aérodrome :
LOGIN :

S'inscrire | Disclaimer

   EN    FR    IT 

 










Légende :    VFR   VFR Marginal   IFR   IFR Intensif   IFR Très Intensif
Visi : 
Plafond : 
>= 8 km
>= 3000ft
5 à 8 km
1000 à 3000 ft
1500m à 5 km
500 à 1000 ft
800 à 1500m
200 à 500 ft
< 800m
< 200 ft
Symboles :   Orages  Brouillard  Fortes neiges  Fortes précipitations  Vent > 20 kt
SIGMETs :   Divers  Orages  Givrage  Turbulence  Onde Orograph.  Cendres Volcan.






- Altitude de l'aérodrome : 1090 ft
- Code IATA : CFE


LFLC - Clermont-Ferrand Auvergne

DERNIER METAR :
  • 022030Z AUTO 23002KT CAVOK 18/12 Q1013 NOSIG

METARs EXPIRÉS :
  • 022000Z AUTO 00000KT CAVOK 19/13 Q1013 NOSIG
  • 021930Z AUTO VRB01KT CAVOK 21/13 Q1013 NOSIG
  • 021900Z AUTO 02002KT CAVOK 24/11 Q1013 NOSIG
  • 021830Z AUTO 04003KT 010V080 CAVOK 25/11 Q1013 NOSIG
  • 021800Z AUTO 03004KT CAVOK 25/10 Q1013 NOSIG

TAF TAF LFLC
Valide du 02 à 15h jusqu'au 03 à 15h UTC


021400Z 0215/0315 02005KT CAVOK
PROB30
TEMPO 0215/0218 VRB15G25KT 4000 SHRA SCT060TCU
BECMG 0218/0220 18006KT
PROB40
TEMPO 0309/0315 VRB15G35KT 2000 TSRA BKN055CB
PROB30
TEMPO 0310/0315 1000 TSGR
ATIS : +33 4 73 62 74 38



MET'MAP, la Météo Aéronautique d'un coup d'oeil ! - Copyright ORBIFLY Décembre 2007 - Disclaimer

ORBIFLY MET'MAP TEAM :

Programmation & Développement : Alexandra Zaïnal
Sur une idée originale de : Baudouin d'Aumeries
Assistance à la programmation : Marc-Olivier Méhu
Soutien technique & logistique : Manuel Goepfert

Contact : metmap@orbifly.com




SOURCES & CREDITS :

   NOAA